Time;durP1;ratioP1;P1;durP2;ratioP2;P2;SDS_P1;SDS_P2;PMS_P1;PMS_P2;Temp;Humidity;BMP_temperature;BMP_pressure;BME280_temperature;BME280_humidity;BME280_pressure;Samples;Min_cycle;Max_cycle;Signal;HPM_P1;HPM_P2
2022/09/05 00:02:00;;;;;;;1.85;1.40;;;18.00;92.20;;;;;;5013901;28;20178;-82
2022/09/05 00:04:28;;;;;;;2.42;1.60;;;17.90;92.40;;;;;;5013851;28;20175;-83
2022/09/05 00:07:14;;;;;;;2.70;1.65;;;17.90;92.40;;;;;;5021100;28;20191;-82
2022/09/05 00:09:57;;;;;;;2.70;1.90;;;17.90;92.40;;;;;;5030660;28;20237;-82
2022/09/05 00:12:24;;;;;;;1.40;1.30;;;17.90;92.30;;;;;;5031157;28;20179;-82
2022/09/05 00:14:50;;;;;;;3.35;1.58;;;17.90;92.40;;;;;;5030929;28;20179;-83
2022/09/05 00:17:33;;;;;;;1.88;1.45;;;17.90;92.40;;;;;;5015850;28;20190;-83
2022/09/05 00:20:37;;;;;;;3.38;2.05;;;18.00;92.60;;;;;;5030935;28;20186;-82
2022/09/05 00:23:09;;;;;;;2.35;1.85;;;17.90;92.40;;;;;;5017180;28;20248;-82
2022/09/05 00:26:17;;;;;;;4.00;1.67;;;18.00;92.30;;;;;;5034809;28;20187;-83
2022/09/05 00:29:11;;;;;;;3.25;1.23;;;18.00;92.30;;;;;;5035324;28;20202;-82
2022/09/05 00:31:42;;;;;;;2.22;1.75;;;18.00;92.30;;;;;;5025942;28;20226;-82
2022/09/05 00:34:28;;;;;;;3.90;1.50;;;18.00;92.30;;;;;;5035323;28;20594;-83
2022/09/05 00:36:54;;;;;;;2.63;1.60;;;18.00;92.30;;;;;;5035176;28;20173;-83
2022/09/05 00:39:25;;;;;;;2.03;1.75;;;18.00;92.40;;;;;;5050322;28;20181;-83
2022/09/05 00:41:55;;;;;;;4.53;1.60;;;18.00;92.20;;;;;;5035072;28;20175;-83
2022/09/05 00:44:25;;;;;;;2.00;1.63;;;17.90;92.40;;;;;;5035023;28;20266;-83
2022/09/05 00:47:22;;;;;;;3.35;1.52;;;17.90;92.40;;;;;;5034758;28;20301;-82
2022/09/05 00:50:01;;;;;;;3.17;1.77;;;17.90;92.60;;;;;;5455506;22;20196;-82
2022/09/05 00:52:33;;;;;;;2.67;1.92;;;17.80;92.60;;;;;;5044567;28;20208;-83
2022/09/05 00:55:11;;;;;;;1.98;1.60;;;17.80;92.80;;;;;;5056021;28;20181;-82
2022/09/05 00:57:52;;;;;;;2.95;1.70;;;17.80;92.70;;;;;;5066564;28;20177;-83
2022/09/05 01:00:44;;;;;;;2.20;1.70;;;17.80;92.80;;;;;;5072717;28;20247;-82
2022/09/05 01:04:02;;;;;;;2.30;1.63;;;17.80;92.90;;;;;;5056692;28;20174;-82
2022/09/05 01:07:05;;;;;;;1.95;1.60;;;17.80;93.00;;;;;;5054273;28;20189;-82
2022/09/05 01:10:06;;;;;;;2.70;1.73;;;17.70;93.00;;;;;;5006412;28;20567;-82
2022/09/05 01:13:01;;;;;;;1.88;1.50;;;17.70;93.00;;;;;;5074600;28;20631;-83
2022/09/05 01:15:29;;;;;;;1.95;1.50;;;17.70;93.10;;;;;;5074259;28;20173;-82
2022/09/05 01:18:10;;;;;;;2.30;1.70;;;17.70;93.10;;;;;;5074512;28;20176;-82
2022/09/05 01:21:02;;;;;;;2.67;1.90;;;17.70;93.10;;;;;;5055970;28;20180;-83
2022/09/05 01:23:36;;;;;;;2.05;1.73;;;17.60;93.30;;;;;;5036340;28;20193;-82
2022/09/05 01:26:25;;;;;;;2.45;1.90;;;17.60;93.10;;;;;;5054514;28;20620;-82
2022/09/05 01:29:15;;;;;;;4.75;1.85;;;17.60;93.30;;;;;;5066624;28;20232;-82
2022/09/05 01:32:04;;;;;;;2.58;1.70;;;17.60;93.30;;;;;;5074063;28;20166;-82
2022/09/05 01:35:01;;;;;;;2.95;1.50;;;17.60;93.30;;;;;;5074199;28;20162;-82
2022/09/05 01:37:43;;;;;;;1.80;1.50;;;17.50;93.40;;;;;;5055833;28;20177;-83
2022/09/05 01:40:52;;;;;;;2.35;1.65;;;17.50;93.30;;;;;;5056073;28;20204;-82
2022/09/05 01:43:39;;;;;;;3.58;1.40;;;17.50;93.40;;;;;;5055423;28;20233;-82
2022/09/05 01:46:21;;;;;;;2.65;1.65;;;17.50;93.20;;;;;;5056147;28;20165;-83
2022/09/05 01:48:50;;;;;;;3.00;1.65;;;17.40;93.20;;;;;;5074067;28;20204;-82
2022/09/05 01:51:48;;;;;;;4.30;2.10;;;17.40;93.20;;;;;;5052115;28;20230;-82
2022/09/05 01:54:32;;;;;;;2.45;1.73;;;17.40;93.30;;;;;;5053957;28;20162;-82
2022/09/05 01:57:21;;;;;;;3.47;2.08;;;17.40;93.30;;;;;;5053920;28;20173;-82
2022/09/05 02:00:12;;;;;;;4.03;2.00;;;17.40;93.30;;;;;;5012728;28;20281;-81
2022/09/05 02:03:07;;;;;;;3.13;1.95;;;17.40;93.40;;;;;;5033803;28;20217;-82
2022/09/05 02:05:49;;;;;;;7.95;1.88;;;17.30;93.40;;;;;;5023557;28;20670;-82
2022/09/05 02:08:29;;;;;;;3.75;1.80;;;17.20;93.60;;;;;;5032398;28;20511;-83
2022/09/05 02:11:05;;;;;;;1.98;1.60;;;17.20;93.50;;;;;;5033741;28;20166;-83
2022/09/05 02:13:34;;;;;;;2.75;1.80;;;17.20;93.70;;;;;;5033177;28;20608;-82
2022/09/05 02:16:14;;;;;;;5.45;2.20;;;17.20;93.70;;;;;;5032546;28;20185;-82
2022/09/05 02:19:08;;;;;;;2.38;1.77;;;17.10;93.80;;;;;;5047190;28;20169;-82
2022/09/05 02:21:40;;;;;;;2.58;1.77;;;17.10;93.80;;;;;;5047827;28;20193;-83
2022/09/05 02:24:20;;;;;;;2.47;2.00;;;17.10;93.90;;;;;;5053648;28;20636;-82
2022/09/05 02:27:07;;;;;;;2.35;1.73;;;17.10;93.90;;;;;;5053641;28;20269;-82
2022/09/05 02:29:44;;;;;;;3.35;2.38;;;17.10;94.00;;;;;;5052969;28;20535;-83
2022/09/05 02:32:42;;;;;;;2.50;1.83;;;17.10;94.40;;;;;;5053676;28;20166;-82
2022/09/05 02:35:10;;;;;;;2.70;1.80;;;17.00;94.40;;;;;;5044276;28;20698;-82
2022/09/05 02:37:57;;;;;;;2.40;1.50;;;17.00;94.20;;;;;;5051842;28;20182;-82
2022/09/05 02:40:57;;;;;;;3.50;1.80;;;16.90;94.30;;;;;;5053089;28;20722;-83
2022/09/05 02:43:42;;;;;;;1.83;1.65;;;16.90;94.30;;;;;;5052118;28;20567;-81
2022/09/05 02:46:26;;;;;;;2.33;1.83;;;16.90;94.30;;;;;;5053014;28;20552;-82
2022/09/05 02:49:07;;;;;;;2.65;1.92;;;16.90;94.50;;;;;;5052544;28;20339;-82
2022/09/05 02:51:52;;;;;;;2.33;1.75;;;16.90;94.30;;;;;;5051512;28;20614;-83
2022/09/05 02:54:26;;;;;;;2.38;1.58;;;16.90;94.50;;;;;;5052013;28;20182;-82
2022/09/05 02:57:30;;;;;;;2.70;2.13;;;16.90;94.50;;;;;;5051808;28;20181;-82
2022/09/05 03:00:22;;;;;;;4.65;1.50;;;16.90;94.50;;;;;;5053271;28;20212;-82
2022/09/05 03:03:03;;;;;;;2.70;1.83;;;16.90;94.50;;;;;;5051768;28;20265;-81
2022/09/05 03:05:42;;;;;;;2.50;2.03;;;16.90;94.70;;;;;;5053209;28;20162;-82
2022/09/05 03:08:11;;;;;;;2.30;1.80;;;16.90;94.70;;;;;;5051729;28;20200;-82
2022/09/05 03:11:04;;;;;;;3.03;1.90;;;16.80;94.70;;;;;;5051364;28;20217;-83
2022/09/05 03:14:01;;;;;;;2.50;1.90;;;16.80;94.90;;;;;;5051777;28;20170;-83
2022/09/05 03:16:35;;;;;;;3.13;1.88;;;16.70;94.90;;;;;;5053108;28;20264;-82
2022/09/05 03:19:34;;;;;;;2.20;1.75;;;16.70;95.00;;;;;;5052749;28;20427;-81
2022/09/05 03:22:18;;;;;;;3.42;1.95;;;16.70;95.10;;;;;;5052876;28;20178;-81
2022/09/05 03:25:21;;;;;;;3.25;2.00;;;16.70;94.90;;;;;;5053140;28;20237;-82
2022/09/05 03:27:50;;;;;;;5.40;2.00;;;16.70;95.10;;;;;;5056175;28;20184;-82
2022/09/05 03:30:31;;;;;;;2.78;1.95;;;16.70;95.30;;;;;;5055036;28;20213;-83
2022/09/05 03:33:20;;;;;;;4.40;1.95;;;16.70;95.30;;;;;;5056624;28;20646;-82
2022/09/05 03:36:10;;;;;;;8.30;2.00;;;16.70;95.40;;;;;;5055957;28;20219;-82
2022/09/05 03:39:01;;;;;;;4.72;2.40;;;16.70;95.40;;;;;;5056140;28;20178;-82
2022/09/05 03:41:42;;;;;;;3.10;2.03;;;16.60;95.50;;;;;;5055085;28;20178;-83
2022/09/05 03:44:10;;;;;;;3.40;2.38;;;16.60;95.60;;;;;;5056123;28;20162;-83
2022/09/05 03:47:04;;;;;;;4.00;2.33;;;16.70;95.60;;;;;;5054926;28;20650;-83
2022/09/05 03:50:00;;;;;;;3.42;2.17;;;16.60;95.70;;;;;;5054828;28;20652;-83
2022/09/05 03:52:44;;;;;;;4.90;1.95;;;16.60;95.80;;;;;;5054144;28;20201;-82
2022/09/05 03:55:21;;;;;;;3.97;1.90;;;16.60;95.80;;;;;;5054797;28;20170;-81
2022/09/05 03:58:06;;;;;;;3.03;2.38;;;16.60;95.80;;;;;;5056051;28;20631;-83
2022/09/05 04:00:35;;;;;;;4.10;2.00;;;16.60;95.90;;;;;;5054658;28;20185;-83
2022/09/05 04:03:29;;;;;;;2.60;2.10;;;16.60;95.90;;;;;;5055882;28;20648;-83
2022/09/05 04:06:05;;;;;;;2.58;2.33;;;16.60;95.90;;;;;;5054594;28;20176;-82
2022/09/05 04:08:50;;;;;;;4.35;2.25;;;16.60;95.90;;;;;;5055674;28;20157;-83
2022/09/05 04:11:16;;;;;;;2.45;2.03;;;16.60;96.00;;;;;;5055664;28;20166;-82
2022/09/05 04:14:01;;;;;;;3.85;1.98;;;16.60;95.90;;;;;;5055459;28;20181;-82
2022/09/05 04:16:51;;;;;;;3.28;2.15;;;16.70;95.90;;;;;;5054453;28;20534;-82
2022/09/05 04:19:34;;;;;;;2.92;2.17;;;16.60;95.80;;;;;;5055570;28;20174;-82
2022/09/05 04:22:16;;;;;;;2.55;2.10;;;16.60;95.90;;;;;;5055215;28;20291;-82
2022/09/05 04:24:46;;;;;;;3.33;2.15;;;16.60;96.00;;;;;;5055511;28;20252;-82
2022/09/05 04:27:19;;;;;;;3.17;2.10;;;16.50;96.10;;;;;;5053665;28;20198;-82
2022/09/05 04:29:58;;;;;;;5.40;2.63;;;16.50;96.20;;;;;;5054019;28;20287;-82
2022/09/05 04:32:50;;;;;;;5.97;2.63;;;16.50;96.10;;;;;;5054780;28;20174;-82
2022/09/05 04:35:44;;;;;;;5.70;2.20;;;16.50;96.20;;;;;;5054924;28;20920;-82
2022/09/05 04:38:15;;;;;;;6.03;2.15;;;16.50;96.20;;;;;;5055088;28;20198;-82
2022/09/05 04:40:57;;;;;;;5.55;2.50;;;16.50;96.40;;;;;;5053832;28;20925;-83
2022/09/05 04:43:47;;;;;;;3.78;2.20;;;16.40;96.30;;;;;;5055263;28;20170;-82
2022/09/05 04:46:35;;;;;;;4.13;2.30;;;16.40;96.30;;;;;;5055243;28;20249;-82
2022/09/05 04:49:18;;;;;;;4.80;2.45;;;16.50;96.30;;;;;;5054954;28;20248;-82
2022/09/05 04:52:01;;;;;;;3.85;2.45;;;16.40;96.40;;;;;;5072684;28;20228;-82
2022/09/05 04:54:41;;;;;;;5.38;2.20;;;16.40;96.40;;;;;;5074879;28;20173;-81
2022/09/05 04:57:07;;;;;;;3.72;2.22;;;16.40;96.50;;;;;;5056917;28;20181;-82
2022/09/05 04:59:41;;;;;;;5.20;2.53;;;16.40;96.40;;;;;;5056396;28;20173;-81
2022/09/05 05:02:20;;;;;;;3.50;2.25;;;16.40;96.50;;;;;;5074752;28;20184;-83
2022/09/05 05:04:46;;;;;;;4.03;2.08;;;16.40;96.50;;;;;;5074692;28;20165;-82
2022/09/05 05:07:20;;;;;;;4.82;2.30;;;16.40;96.50;;;;;;5056655;28;20183;-83
2022/09/05 05:09:55;;;;;;;3.47;2.10;;;16.50;96.50;;;;;;5074482;28;20276;-82
2022/09/05 05:12:42;;;;;;;3.20;2.28;;;16.50;96.60;;;;;;5074722;28;20157;-83
2022/09/05 05:15:16;;;;;;;4.50;2.55;;;16.50;96.40;;;;;;5056542;28;20212;-82
2022/09/05 05:17:52;;;;;;;6.32;2.35;;;16.50;96.50;;;;;;5056522;28;20607;-83
2022/09/05 05:20:23;;;;;;;6.78;2.75;;;16.50;96.60;;;;;;5074272;28;20173;-83
2022/09/05 05:23:01;;;;;;;3.30;2.55;;;16.50;96.60;;;;;;5073614;28;20243;-82
2022/09/05 05:25:28;;;;;;;4.45;2.55;;;16.40;96.60;;;;;;5074482;28;20165;-83
2022/09/05 05:28:08;;;;;;;4.40;2.50;;;16.50;96.60;;;;;;5074490;28;20161;-82
2022/09/05 05:30:34;;;;;;;9.75;2.92;;;16.50;96.60;;;;;;5056057;28;20244;-82
2022/09/05 05:33:15;;;;;;;6.60;2.70;;;16.50;96.70;;;;;;5074052;28;20189;-83
2022/09/05 05:35:46;;;;;;;3.05;2.40;;;16.50;96.60;;;;;;5056235;28;20408;-82
2022/09/05 05:38:36;;;;;;;4.60;2.67;;;16.50;96.70;;;;;;5073931;28;20189;-85
2022/09/05 05:41:28;;;;;;;4.28;2.40;;;16.50;96.60;;;;;;5074010;28;20165;-82
2022/09/05 05:43:53;;;;;;;3.35;2.67;;;16.50;96.70;;;;;;5044609;28;20190;-82
2022/09/05 05:46:54;;;;;;;4.45;2.58;;;16.50;96.60;;;;;;5053780;28;20627;-82
2022/09/05 05:49:38;;;;;;;3.35;2.60;;;16.50;96.70;;;;;;5041003;28;20236;-82
2022/09/05 05:52:13;;;;;;;3.00;2.30;;;16.50;96.80;;;;;;5073770;28;20177;-83
2022/09/05 05:54:54;;;;;;;3.10;2.33;;;16.50;96.80;;;;;;5071651;28;20659;-82
2022/09/05 05:57:38;;;;;;;4.35;2.00;;;16.60;96.80;;;;;;5064549;28;20503;-82
2022/09/05 06:00:08;;;;;;;5.05;2.80;;;16.60;96.70;;;;;;5066995;28;20548;-82
2022/09/05 06:03:11;;;;;;;6.07;2.33;;;16.70;96.80;;;;;;5055833;28;20173;-82
2022/09/05 06:06:14;;;;;;;3.03;2.40;;;16.70;96.70;;;;;;5058697;28;20227;-82
2022/09/05 06:09:07;;;;;;;3.75;2.50;;;16.70;96.70;;;;;;5053343;28;20166;-82
2022/09/05 06:12:00;;;;;;;6.22;2.35;;;16.80;96.70;;;;;;5036428;28;20258;-81
2022/09/05 06:14:52;;;;;;;4.72;2.55;;;16.90;96.50;;;;;;5055392;28;20180;-82
2022/09/05 06:17:24;;;;;;;4.55;2.55;;;17.00;96.80;;;;;;5073431;28;20159;-81
2022/09/05 06:20:11;;;;;;;2.90;2.60;;;17.00;96.60;;;;;;5055229;28;20184;-82
2022/09/05 06:22:58;;;;;;;3.72;2.55;;;17.10;96.60;;;;;;5073242;28;20169;-81
2022/09/05 06:26:06;;;;;;;3.67;2.35;;;17.20;96.30;;;;;;5073590;28;20169;-82
2022/09/05 06:29:11;;;;;;;2.90;2.53;;;17.20;96.50;;;;;;5073256;28;20192;-82
2022/09/05 06:32:06;;;;;;;3.22;2.60;;;17.30;96.30;;;;;;5073578;28;20533;-83
2022/09/05 06:34:58;;;;;;;4.07;2.58;;;17.30;96.10;;;;;;4984930;28;20196;-82
2022/09/05 06:37:48;;;;;;;3.42;2.20;;;17.40;96.30;;;;;;5024953;28;20185;-81
2022/09/05 06:40:33;;;;;;;3.38;2.38;;;17.40;96.30;;;;;;5055383;28;20205;-82
2022/09/05 06:43:12;;;;;;;3.33;2.67;;;17.50;96.10;;;;;;5055328;28;20808;-82
2022/09/05 06:46:16;;;;;;;6.28;3.00;;;17.60;96.20;;;;;;5055353;28;20169;-82
2022/09/05 06:49:03;;;;;;;5.80;2.97;;;17.60;96.20;;;;;;5054946;28;20231;-83
2022/09/05 06:51:36;;;;;;;3.90;2.40;;;17.80;96.70;;;;;;5073045;28;20244;-83
2022/09/05 06:54:15;;;;;;;3.90;2.70;;;17.80;96.50;;;;;;5072817;28;20223;-82
2022/09/05 06:56:58;;;;;;;4.10;2.83;;;17.80;96.60;;;;;;5073400;28;20170;-82
2022/09/05 07:00:07;;;;;;;5.32;3.03;;;17.90;97.50;;;;;;5075607;28;20176;-82
2022/09/05 07:03:21;;;;;;;7.07;3.10;;;17.90;97.30;;;;;;5076901;28;20223;-82
2022/09/05 07:06:10;;;;;;;7.10;2.90;;;18.00;97.60;;;;;;5041610;28;20189;-82
2022/09/05 07:08:50;;;;;;;5.90;2.65;;;18.00;97.40;;;;;;5075393;28;20196;-82
2022/09/05 07:11:20;;;;;;;6.78;3.25;;;18.10;96.70;;;;;;5058906;28;20177;-83
2022/09/05 07:13:56;;;;;;;5.03;3.05;;;18.10;97.10;;;;;;5076546;28;20180;-82
2022/09/05 07:16:50;;;;;;;3.92;2.88;;;18.20;97.00;;;;;;5058836;28;20618;-82
2022/09/05 07:19:31;;;;;;;9.70;2.80;;;18.20;97.10;;;;;;5058622;28;20604;-83
2022/09/05 07:22:14;;;;;;;5.25;3.08;;;18.40;96.70;;;;;;5058909;28;20177;-84
2022/09/05 07:24:46;;;;;;;3.80;3.00;;;18.50;96.70;;;;;;5058652;28;20219;-84
2022/09/05 07:27:30;;;;;;;4.78;3.30;;;18.60;96.70;;;;;;5075403;28;20185;-83
2022/09/05 07:29:58;;;;;;;4.63;3.00;;;18.80;96.40;;;;;;5076329;28;20291;-84
2022/09/05 07:32:24;;;;;;;2.97;2.60;;;18.90;96.40;;;;;;5076491;28;20218;-83
2022/09/05 07:34:51;;;;;;;3.95;2.85;;;19.00;95.70;;;;;;5075680;28;20180;-83
2022/09/05 07:37:20;;;;;;;4.38;3.00;;;19.10;96.00;;;;;;5057676;28;20188;-83
2022/09/05 07:40:09;;;;;;;4.95;3.10;;;19.20;95.80;;;;;;5058047;28;20177;-83
2022/09/05 07:42:47;;;;;;;4.82;3.03;;;19.30;95.60;;;;;;5076433;28;20157;-83
2022/09/05 07:45:22;;;;;;;6.47;3.33;;;19.40;95.40;;;;;;5076329;28;20157;-82
2022/09/05 07:48:18;;;;;;;5.90;3.28;;;19.50;95.20;;;;;;5076031;28;20169;-81
2022/09/05 07:50:55;;;;;;;3.63;2.85;;;19.60;94.90;;;;;;5075920;28;20315;-83
2022/09/05 07:53:23;;;;;;;4.88;3.00;;;19.70;94.70;;;;;;5076152;28;20263;-82
2022/09/05 07:55:56;;;;;;;5.68;3.22;;;19.80;95.00;;;;;;5075484;28;20339;-83
2022/09/05 07:58:33;;;;;;;4.60;3.28;;;19.90;94.70;;;;;;5057541;28;20181;-81
2022/09/05 08:00:59;;;;;;;7.30;3.05;;;20.00;94.50;;;;;;5075671;28;20253;-83
2022/09/05 08:03:28;;;;;;;7.22;3.00;;;20.10;94.10;;;;;;5075903;28;20234;-83
2022/09/05 08:05:59;;;;;;;3.85;2.70;;;20.20;94.60;;;;;;5075878;28;20264;-82
2022/09/05 08:08:52;;;;;;;8.13;3.65;;;20.20;94.30;;;;;;5075946;28;20154;-82
2022/09/05 08:11:21;;;;;;;5.70;3.45;;;20.30;94.30;;;;;;5046731;28;20194;-82
2022/09/05 08:14:00;;;;;;;4.72;3.70;;;20.30;94.10;;;;;;5075714;28;20177;-83
2022/09/05 08:16:26;;;;;;;7.88;3.25;;;20.30;94.00;;;;;;5057443;28;20170;-82
2022/09/05 08:19:25;;;;;;;5.25;3.33;;;20.30;94.10;;;;;;5075633;28;20298;-83
2022/09/05 08:21:54;;;;;;;4.15;3.30;;;20.50;94.30;;;;;;5075408;28;20196;-84
2022/09/05 08:24:45;;;;;;;8.38;3.42;;;20.70;93.90;;;;;;5057625;28;20209;-83
2022/09/05 08:27:26;;;;;;;5.97;3.65;;;20.80;93.90;;;;;;5057494;28;20173;-83
2022/09/05 08:30:07;;;;;;;5.35;3.58;;;20.90;93.70;;;;;;5037494;28;20209;-83
2022/09/05 08:33:08;;;;;;;4.15;3.00;;;21.00;93.50;;;;;;5070633;28;20176;-82
2022/09/05 08:35:33;;;;;;;4.45;3.20;;;21.00;93.50;;;;;;5068189;28;20203;-86
2022/09/05 08:38:00;;;;;;;5.25;3.47;;;21.00;93.90;;;;;;5075299;28;20161;-82
2022/09/05 08:40:40;;;;;;;3.85;3.50;;;21.10;93.50;;;;;;5056701;28;20177;-83
2022/09/05 08:43:35;;;;;;;7.03;3.88;;;21.20;93.60;;;;;;5057271;28;20181;-82
2022/09/05 08:46:12;;;;;;;7.07;3.55;;;21.40;93.30;;;;;;5074941;28;20162;-83
2022/09/05 08:48:56;;;;;;;4.05;3.25;;;21.40;93.50;;;;;;5074830;28;20211;-83
2022/09/05 08:51:42;;;;;;;5.00;3.30;;;21.30;93.40;;;;;;5053509;28;20734;-83
2022/09/05 08:54:36;;;;;;;6.90;3.33;;;21.30;93.20;;;;;;5054642;28;20178;-83
2022/09/05 08:57:26;;;;;;;5.63;3.47;;;21.50;93.10;;;;;;5054688;28;20684;-83
2022/09/05 09:00:05;;;;;;;7.13;3.83;;;21.70;93.00;;;;;;5054857;28;20173;-83
2022/09/05 09:02:54;;;;;;;6.22;3.40;;;21.80;92.40;;;;;;5053140;28;20209;-83
2022/09/05 09:05:25;;;;;;;5.53;3.30;;;21.80;92.50;;;;;;5054211;28;20173;-82
2022/09/05 09:08:11;;;;;;;10.73;3.33;;;22.00;92.30;;;;;;5053469;28;20170;-83
2022/09/05 09:10:59;;;;;;;4.75;3.40;;;22.10;92.00;;;;;;5054323;28;20193;-82
2022/09/05 09:13:34;;;;;;;5.95;3.55;;;22.20;92.30;;;;;;5053163;28;20206;-82
2022/09/05 09:16:37;;;;;;;5.10;3.17;;;22.40;92.40;;;;;;5054065;28;20169;-82
2022/09/05 09:19:11;;;;;;;4.05;3.60;;;22.50;91.90;;;;;;5054857;28;20157;-81
2022/09/05 09:21:45;;;;;;;5.55;3.30;;;22.60;91.20;;;;;;5054320;28;20248;-84
2022/09/05 09:24:27;;;;;;;3.65;3.10;;;22.70;91.30;;;;;;5054424;28;20178;-83
2022/09/05 09:26:59;;;;;;;4.25;2.97;;;22.70;91.50;;;;;;5054278;28;20185;-83
2022/09/05 09:29:26;;;;;;;4.70;3.10;;;22.80;91.50;;;;;;5053622;28;20202;-83
2022/09/05 09:32:13;;;;;;;3.88;3.15;;;22.90;90.80;;;;;;5054041;28;20178;-83
2022/09/05 09:35:23;;;;;;;6.18;3.10;;;22.90;90.80;;;;;;5052627;28;20178;-82
2022/09/05 09:38:01;;;;;;;5.15;3.25;;;23.00;90.60;;;;;;5044917;28;20287;-83
2022/09/05 09:40:43;;;;;;;7.72;3.38;;;23.10;90.60;;;;;;5054101;28;20177;-83
2022/09/05 09:43:21;;;;;;;8.15;3.45;;;23.20;90.30;;;;;;5052227;28;20528;-83
2022/09/05 09:46:05;;;;;;;6.45;3.20;;;23.30;90.60;;;;;;5052636;28;20236;-83
2022/09/05 09:49:02;;;;;;;5.45;3.22;;;23.50;89.50;;;;;;5052950;28;20228;-83
2022/09/05 09:51:37;;;;;;;6.60;3.20;;;23.60;89.70;;;;;;5052493;28;20236;-84
2022/09/05 09:54:22;;;;;;;5.18;3.28;;;23.70;89.80;;;;;;5053964;28;20248;-83
2022/09/05 09:57:19;;;;;;;3.83;3.20;;;23.80;89.20;;;;;;5052618;28;20231;-84
2022/09/05 09:59:53;;;;;;;4.07;2.70;;;23.90;89.40;;;;;;5052393;28;20170;-82
2022/09/05 10:02:38;;;;;;;4.15;2.95;;;24.00;88.70;;;;;;5053628;28;20203;-83
2022/09/05 10:05:42;;;;;;;4.25;3.17;;;24.10;89.00;;;;;;5052543;28;20519;-83
2022/09/05 10:08:15;;;;;;;3.88;3.10;;;24.20;88.80;;;;;;5053554;28;20169;-84
2022/09/05 10:11:09;;;;;;;9.18;2.92;;;24.20;87.10;;;;;;5053676;28;20536;-83
2022/09/05 10:14:12;;;;;;;5.43;3.15;;;24.20;86.50;;;;;;5052218;28;20635;-83
2022/09/05 10:16:57;;;;;;;4.38;2.50;;;24.10;87.30;;;;;;5052238;28;20264;-86
2022/09/05 10:20:02;;;;;;;5.65;2.80;;;24.10;87.40;;;;;;5052351;28;20177;-84
2022/09/05 10:22:49;;;;;;;6.50;3.05;;;24.10;87.20;;;;;;5040658;28;20185;-84
2022/09/05 10:26:10;;;;;;;5.93;3.08;;;24.20;86.90;;;;;;5034562;28;20174;-83
2022/09/05 10:28:54;;;;;;;4.43;2.70;;;24.30;86.90;;;;;;5011629;28;20290;-84
2022/09/05 10:31:39;;;;;;;3.65;2.65;;;24.50;86.30;;;;;;5049140;28;20197;-84
2022/09/05 10:34:17;;;;;;;4.07;3.20;;;24.60;87.10;;;;;;5055652;28;20200;-82
2022/09/05 10:36:53;;;;;;;3.83;2.95;;;24.80;85.60;;;;;;5056271;28;20651;-84
2022/09/05 10:39:29;;;;;;;5.07;2.97;;;24.70;85.70;;;;;;5055820;28;20212;-83
2022/09/05 10:42:00;;;;;;;4.10;2.88;;;24.80;85.80;;;;;;5055842;28;20189;-85
2022/09/05 10:44:55;;;;;;;6.53;3.20;;;24.90;86.30;;;;;;5057073;28;20170;-82
2022/09/05 10:47:37;;;;;;;3.92;3.38;;;25.00;86.20;;;;;;5048983;28;20185;-83
2022/09/05 10:50:11;;;;;;;4.85;3.03;;;25.00;84.40;;;;;;5061091;28;20304;-85
2022/09/05 10:53:15;;;;;;;7.07;3.38;;;25.10;85.00;;;;;;5077282;28;20239;-82
2022/09/05 10:56:02;;;;;;;6.18;3.10;;;25.10;85.90;;;;;;5028649;28;20514;-82
2022/09/05 10:58:58;;;;;;;6.22;2.88;;;25.20;85.00;;;;;;5059202;28;20191;-86
2022/09/05 11:01:41;;;;;;;10.85;3.20;;;25.30;83.90;;;;;;5076761;28;20185;-82
2022/09/05 11:04:39;;;;;;;7.15;3.05;;;25.40;84.00;;;;;;5076873;28;20931;-82
2022/09/05 11:07:14;;;;;;;5.07;2.90;;;25.50;83.70;;;;;;5076894;28;20707;-83
2022/09/05 11:10:03;;;;;;;4.05;2.90;;;25.50;84.00;;;;;;5058537;28;20223;-81
2022/09/05 11:12:32;;;;;;;6.82;2.80;;;25.60;84.10;;;;;;5076800;28;20177;-82
2022/09/05 11:15:01;;;;;;;7.63;3.22;;;25.70;84.10;;;;;;5058685;28;20619;-83
2022/09/05 11:17:47;;;;;;;5.20;3.10;;;25.80;84.00;;;;;;5076401;28;20169;-82
2022/09/05 11:20:33;;;;;;;4.35;3.00;;;25.90;84.20;;;;;;5076718;28;20256;-83
2022/09/05 11:23:09;;;;;;;3.53;2.70;;;26.00;83.90;;;;;;5058545;28;20169;-83
2022/09/05 11:25:38;;;;;;;7.22;3.10;;;26.20;83.80;;;;;;5076297;28;20165;-83
2022/09/05 11:28:20;;;;;;;4.90;3.17;;;26.30;83.30;;;;;;5076283;28;20259;-83
2022/09/05 11:30:52;;;;;;;4.68;3.28;;;26.30;83.80;;;;;;5076434;28;20253;-86
2022/09/05 11:33:51;;;;;;;6.13;2.80;;;26.40;82.70;;;;;;5038225;28;20268;-83
2022/09/05 11:36:24;;;;;;;5.05;2.95;;;26.50;84.20;;;;;;5048994;28;20586;-84
2022/09/05 11:39:11;;;;;;;4.80;2.55;;;26.60;82.60;;;;;;5058188;28;20551;-85
2022/09/05 11:41:54;;;;;;;4.88;2.83;;;26.60;82.60;;;;;;5058156;28;20180;-84
2022/09/05 11:44:34;;;;;;;5.53;2.88;;;26.70;82.20;;;;;;5075446;28;20169;-86
2022/09/05 11:47:18;;;;;;;7.65;3.33;;;26.70;82.90;;;;;;5075852;28;20157;-84
2022/09/05 11:50:05;;;;;;;4.55;3.17;;;26.80;82.10;;;;;;5055712;28;20558;-83
2022/09/05 11:52:56;;;;;;;5.43;2.90;;;26.70;81.40;;;;;;5056149;28;20186;-83
2022/09/05 11:55:56;;;;;;;8.23;3.22;;;26.80;81.80;;;;;;5038314;28;20239;-84
2022/09/05 11:58:51;;;;;;;4.47;2.90;;;26.80;82.80;;;;;;4995991;28;20240;-84
2022/09/05 12:01:47;;;;;;;4.50;2.70;;;26.90;81.50;;;;;;5061505;28;20204;-84
2022/09/05 12:04:37;;;;;;;4.47;2.88;;;26.90;81.70;;;;;;5057569;28;20261;-84
2022/09/05 12:07:23;;;;;;;3.53;3.17;;;27.00;81.00;;;;;;5075735;28;20242;-84
2022/09/05 12:10:13;;;;;;;6.65;3.25;;;27.00;81.60;;;;;;5075723;28;20228;-83
2022/09/05 12:12:49;;;;;;;3.85;2.78;;;27.00;80.80;;;;;;5057383;28;20183;-84
2022/09/05 12:15:33;;;;;;;3.58;2.80;;;27.10;81.80;;;;;;5057692;28;20180;-84
2022/09/05 12:18:24;;;;;;;4.57;2.83;;;27.10;80.90;;;;;;5075243;28;20166;-84
2022/09/05 12:21:17;;;;;;;5.50;2.80;;;27.20;81.10;;;;;;5075627;28;20154;-85
2022/09/05 12:23:49;;;;;;;4.85;3.13;;;27.40;81.50;;;;;;5075601;28;20215;-85
2022/09/05 12:26:35;;;;;;;4.10;2.60;;;27.40;79.30;;;;;;5057194;28;20513;-84
2022/09/05 12:29:09;;;;;;;4.32;2.95;;;27.30;79.80;;;;;;5075066;28;20207;-83
2022/09/05 12:31:39;;;;;;;5.75;2.90;;;27.40;79.90;;;;;;5074723;28;20214;-87
2022/09/05 12:34:17;;;;;;;4.38;2.78;;;27.40;79.80;;;;;;5075317;28;20158;-85
2022/09/05 12:36:46;;;;;;;7.03;3.10;;;27.40;79.50;;;;;;5057278;28;20185;-86
2022/09/05 12:39:35;;;;;;;7.22;2.92;;;27.40;79.40;;;;;;5074937;28;20239;-82
2022/09/05 12:42:18;;;;;;;3.63;2.72;;;27.40;79.90;;;;;;5074911;28;20200;-83
2022/09/05 12:45:08;;;;;;;3.08;2.70;;;27.40;79.20;;;;;;5057381;28;20222;-84
2022/09/05 12:48:06;;;;;;;3.97;2.65;;;27.50;79.70;;;;;;5074503;28;20165;-85
2022/09/05 12:50:43;;;;;;;3.55;2.38;;;27.60;79.40;;;;;;5040963;28;20244;-85
2022/09/05 12:53:17;;;;;;;3.22;2.80;;;27.60;79.60;;;;;;5074990;28;20188;-87
2022/09/05 12:56:01;;;;;;;4.35;2.42;;;27.70;78.90;;;;;;5056785;28;20212;-85
2022/09/05 12:58:31;;;;;;;3.53;2.70;;;27.60;78.30;;;;;;5056443;28;20192;-83
2022/09/05 13:01:29;;;;;;;4.28;2.53;;;27.60;79.70;;;;;;5056643;28;20216;-85
2022/09/05 13:04:20;;;;;;;4.25;2.47;;;27.70;79.00;;;;;;5057105;28;20256;-84
2022/09/05 13:06:57;;;;;;;3.28;2.63;;;27.80;79.80;;;;;;5074627;28;20612;-85
2022/09/05 13:09:36;;;;;;;4.53;2.60;;;28.00;78.60;;;;;;5074567;28;20255;-85
2022/09/05 13:12:19;;;;;;;4.15;2.60;;;27.90;77.60;;;;;;5074257;28;20185;-85
2022/09/05 13:15:04;;;;;;;5.90;2.28;;;27.90;78.60;;;;;;5074719;28;20218;-86
2022/09/05 13:17:58;;;;;;;2.95;2.50;;;27.90;78.40;;;;;;5056421;28;20252;-86
2022/09/05 13:20:35;;;;;;;3.33;2.40;;;28.00;77.50;;;;;;5074075;28;20189;-84
2022/09/05 13:23:26;;;;;;;4.65;2.40;;;28.10;77.80;;;;;;5036476;28;20257;-85
2022/09/05 13:26:00;;;;;;;6.22;2.30;;;27.90;77.50;;;;;;5016309;28;20193;-85
2022/09/05 13:28:50;;;;;;;3.78;2.58;;;27.80;77.90;;;;;;5045562;28;20185;-86
2022/09/05 13:31:44;;;;;;;3.60;2.60;;;27.80;78.10;;;;;;5055556;28;20234;-86
2022/09/05 13:34:33;;;;;;;5.05;2.55;;;27.90;78.20;;;;;;5041054;28;20249;-86
2022/09/05 13:37:05;;;;;;;3.47;2.20;;;28.00;78.00;;;;;;5074144;28;20166;-86
2022/09/05 13:40:09;;;;;;;4.47;3.03;;;28.00;77.40;;;;;;5074376;28;20592;-82
2022/09/05 13:42:43;;;;;;;3.05;2.33;;;28.00;77.50;;;;;;5069721;28;20185;-83
2022/09/05 13:45:17;;;;;;;5.22;2.58;;;27.90;77.90;;;;;;5073802;28;20181;-83
2022/09/05 13:48:14;;;;;;;6.72;2.42;;;27.90;77.80;;;;;;5073791;28;20161;-85
2022/09/05 13:50:51;;;;;;;3.40;2.50;;;27.90;78.00;;;;;;5073758;28;20235;-83
2022/09/05 13:53:31;;;;;;;5.80;2.30;;;27.80;77.50;;;;;;5056017;28;20611;-84
2022/09/05 13:56:19;;;;;;;3.35;2.30;;;27.90;77.30;;;;;;5073362;28;20196;-84
2022/09/05 13:58:49;;;;;;;5.60;2.40;;;27.90;76.80;;;;;;5073923;28;20153;-83
2022/09/05 14:01:29;;;;;;;5.65;2.67;;;27.90;76.90;;;;;;5055803;28;20165;-84
2022/09/05 14:04:23;;;;;;;5.50;2.78;;;27.80;76.60;;;;;;5055971;28;20176;-84
2022/09/05 14:07:17;;;;;;;3.58;2.38;;;27.80;76.60;;;;;;5055805;28;20184;-85
2022/09/05 14:10:20;;;;;;;4.75;2.40;;;27.70;77.70;;;;;;5055254;28;20213;-84
2022/09/05 14:12:48;;;;;;;5.72;2.40;;;27.70;77.70;;;;;;5073091;28;20183;-83